Time;durP1;ratioP1;P1;durP2;ratioP2;P2;SDS_P1;SDS_P2;PMS_P1;PMS_P2;Temp;Humidity;BMP_temperature;BMP_pressure;BME280_temperature;BME280_humidity;BME280_pressure;Samples;Min_cycle;Max_cycle;Signal;HPM_P1;HPM_P2
2022/07/21 00:00:18;;;;;;;5.60;4.85;;;;;27.10;101653.00;;;;5030918;28;20200;-75
2022/07/21 00:02:46;;;;;;;5.30;4.80;;;;;27.00;101656.00;;;;5048404;28;20282;-75
2022/07/21 00:05:13;;;;;;;4.85;4.32;;;;;27.00;101653.00;;;;5042079;28;20240;-75
2022/07/21 00:07:41;;;;;;;5.03;4.53;;;;;27.00;101655.00;;;;5029842;28;20660;-75
2022/07/21 00:10:09;;;;;;;5.05;4.18;;;;;27.00;101649.00;;;;5030239;28;20203;-75
2022/07/21 00:12:38;;;;;;;6.38;4.50;;;;;26.90;101642.00;;;;5031706;28;20220;-75
2022/07/21 00:15:07;;;;;;;4.60;4.10;;;;;26.90;101651.00;;;;5044085;28;20580;-75
2022/07/21 00:17:35;;;;;;;6.00;4.47;;;;;26.80;101644.00;;;;5031810;28;20244;-75
2022/07/21 00:20:03;;;;;;;4.40;4.00;;;;;26.80;101643.00;;;;5044405;28;20279;-75
2022/07/21 00:22:31;;;;;;;6.13;3.60;;;;;26.70;101647.00;;;;5044699;28;20211;-75
2022/07/21 00:24:58;;;;;;;4.90;4.43;;;;;26.70;101646.00;;;;5036638;28;20191;-75
2022/07/21 00:27:26;;;;;;;4.68;3.90;;;;;26.70;101649.00;;;;5045021;28;20563;-75
2022/07/21 00:29:55;;;;;;;5.00;4.13;;;;;26.60;101653.00;;;;5035151;28;20645;-75
2022/07/21 00:32:22;;;;;;;4.45;3.63;;;;;26.60;101649.00;;;;5040555;28;20254;-75
2022/07/21 00:34:50;;;;;;;4.18;3.53;;;;;26.60;101656.00;;;;5035739;28;20231;-75
2022/07/21 00:37:17;;;;;;;3.28;2.95;;;;;26.60;101645.00;;;;5036728;28;20198;-75
2022/07/21 00:39:45;;;;;;;3.50;2.80;;;;;26.50;101643.00;;;;5032415;28;20212;-75
2022/07/21 00:42:22;;;;;;;6.60;3.70;;;;;26.40;101635.00;;;;5038742;28;20276;-75
2022/07/21 00:44:49;;;;;;;5.00;2.80;;;;;26.50;101647.00;;;;5048322;28;20290;-76
2022/07/21 00:47:20;;;;;;;4.20;3.53;;;;;26.40;101641.00;;;;5046283;28;20302;-75
2022/07/21 00:49:48;;;;;;;4.03;3.60;;;;;26.40;101635.00;;;;5035204;28;20701;-75
2022/07/21 00:52:16;;;;;;;3.53;3.22;;;;;26.40;101631.00;;;;5031563;28;20355;-75
2022/07/21 00:54:44;;;;;;;3.60;3.08;;;;;26.40;101625.00;;;;5028755;28;21014;-75
2022/07/21 00:57:13;;;;;;;4.00;3.40;;;;;26.30;101616.00;;;;5031183;28;20247;-76
2022/07/21 00:59:41;;;;;;;3.65;3.28;;;;;26.30;101619.00;;;;5035858;28;20192;-75
2022/07/21 01:02:08;;;;;;;3.40;3.10;;;;;26.30;101615.00;;;;5040291;28;20204;-75
2022/07/21 01:04:37;;;;;;;5.38;2.50;;;;;26.30;101605.00;;;;5040352;28;20191;-75
2022/07/21 01:07:06;;;;;;;4.53;3.30;;;;;26.30;101606.00;;;;5039309;28;20275;-75
2022/07/21 01:09:34;;;;;;;3.78;3.33;;;;;26.20;101605.00;;;;5043018;28;20650;-75
2022/07/21 01:12:03;;;;;;;3.42;3.13;;;;;26.20;101615.00;;;;5046220;28;20718;-75
2022/07/21 01:14:31;;;;;;;3.60;3.15;;;;;26.20;101607.00;;;;5043489;28;20277;-75
2022/07/21 01:17:01;;;;;;;7.10;3.60;;;;;26.20;101612.00;;;;5037375;28;20741;-75
2022/07/21 01:19:29;;;;;;;3.70;3.40;;;;;26.20;101605.00;;;;5036433;28;20275;-75
2022/07/21 01:21:58;;;;;;;4.95;4.10;;;;;26.10;101601.00;;;;5046776;28;20203;-75
2022/07/21 01:24:25;;;;;;;3.63;3.13;;;;;26.10;101594.00;;;;5028881;28;20203;-75
2022/07/21 01:26:54;;;;;;;3.13;2.85;;;;;26.10;101593.00;;;;5029698;28;20196;-75
2022/07/21 01:29:22;;;;;;;5.15;3.67;;;;;26.10;101588.00;;;;5031926;28;20204;-75
2022/07/21 01:31:51;;;;;;;4.05;3.65;;;;;26.10;101580.00;;;;5028345;28;20220;-75
2022/07/21 01:34:18;;;;;;;4.72;3.28;;;;;26.00;101585.00;;;;5037118;28;20193;-75
2022/07/21 01:36:46;;;;;;;4.28;3.17;;;;;26.00;101579.00;;;;5035718;28;20214;-75
2022/07/21 01:42:00;;;;;;;4.55;3.20;;;;;26.00;101591.00;;;;5029949;28;20785;-76
2022/07/21 01:44:28;;;;;;;3.63;3.30;;;;;26.00;101600.00;;;;5031595;28;20204;-76
2022/07/21 01:46:55;;;;;;;3.85;3.45;;;;;25.90;101599.00;;;;5033290;28;20200;-76
2022/07/21 01:49:23;;;;;;;5.53;3.78;;;;;25.90;101600.00;;;;5031027;28;20204;-76
2022/07/21 01:51:51;;;;;;;6.25;3.47;;;;;25.90;101605.00;;;;5049956;28;20227;-76
2022/07/21 01:54:20;;;;;;;4.10;3.70;;;;;25.90;101603.00;;;;5036608;28;20287;-76
2022/07/21 01:56:48;;;;;;;4.82;3.58;;;;;25.90;101613.00;;;;5029834;28;20299;-76
2022/07/21 01:59:15;;;;;;;3.72;3.42;;;;;25.90;101596.00;;;;5034508;28;20680;-76
2022/07/21 02:01:43;;;;;;;6.05;4.00;;;;;25.90;101590.00;;;;5032828;28;20279;-76
2022/07/21 02:04:10;;;;;;;5.63;4.22;;;;;25.90;101599.00;;;;5033690;28;20207;-76
2022/07/21 02:06:38;;;;;;;6.20;4.03;;;;;25.90;101596.00;;;;5031092;28;20220;-76
2022/07/21 02:09:08;;;;;;;4.43;4.03;;;;;25.90;101595.00;;;;5036066;28;20330;-76
2022/07/21 02:11:37;;;;;;;4.90;3.78;;;;;25.90;101600.00;;;;5037327;28;20879;-76
2022/07/21 02:14:04;;;;;;;6.05;4.57;;;;;25.90;101590.00;;;;5035391;28;20222;-76
2022/07/21 02:16:32;;;;;;;4.47;4.03;;;;;25.90;101586.00;;;;5032004;28;20293;-76
2022/07/21 02:19:00;;;;;;;5.35;4.18;;;;;25.90;101584.00;;;;5032456;28;20196;-76
2022/07/21 02:21:27;;;;;;;6.03;4.70;;;;;25.90;101583.00;;;;5029286;28;20203;-76
2022/07/21 02:23:55;;;;;;;5.22;4.38;;;;;25.90;101582.00;;;;5035227;28;20279;-76
2022/07/21 02:26:22;;;;;;;5.93;4.75;;;;;25.90;101579.00;;;;5053631;28;20192;-76
2022/07/21 02:28:51;;;;;;;6.35;5.50;;;;;25.90;101574.00;;;;5037656;28;20214;-76
2022/07/21 02:31:19;;;;;;;6.30;5.70;;;;;25.90;101572.00;;;;5046191;28;20205;-76
2022/07/21 02:33:46;;;;;;;6.57;5.50;;;;;25.90;101573.00;;;;5037015;28;20231;-76
2022/07/21 02:36:14;;;;;;;7.03;5.95;;;;;25.90;101579.00;;;;5044750;28;20721;-76
2022/07/21 02:38:41;;;;;;;5.75;4.97;;;;;25.90;101568.00;;;;5035416;28;20200;-76
2022/07/21 02:41:09;;;;;;;5.88;5.25;;;;;25.80;101569.00;;;;5036004;28;20662;-76
2022/07/21 02:43:36;;;;;;;7.25;5.53;;;;;25.80;101580.00;;;;5034292;28;20204;-76
2022/07/21 02:46:05;;;;;;;7.00;5.70;;;;;25.80;101570.00;;;;5046841;28;20191;-76
2022/07/21 02:48:32;;;;;;;9.60;6.80;;;;;25.80;101561.00;;;;5039729;28;20219;-76
2022/07/21 02:51:00;;;;;;;6.78;6.13;;;;;25.80;101556.00;;;;5038091;28;20199;-76
2022/07/21 02:53:27;;;;;;;7.60;6.75;;;;;25.80;101556.00;;;;5044380;28;20227;-73
2022/07/21 02:55:54;;;;;;;10.57;6.80;;;;;25.70;101552.00;;;;5039780;28;20195;-74
2022/07/21 02:58:23;;;;;;;7.07;6.13;;;;;25.70;101555.00;;;;5036020;28;20615;-75
2022/07/21 03:00:52;;;;;;;8.65;6.85;;;;;25.70;101549.00;;;;5038043;28;20204;-75
2022/07/21 03:03:22;;;;;;;10.68;7.40;;;;;25.70;101543.00;;;;5036092;28;20200;-75
2022/07/21 03:05:50;;;;;;;8.98;6.93;;;;;25.70;101539.00;;;;5035750;28;20203;-74
2022/07/21 03:08:18;;;;;;;9.10;6.75;;;;;25.70;101537.00;;;;5041100;28;20193;-74
2022/07/21 03:10:46;;;;;;;7.10;6.40;;;;;25.70;101540.00;;;;5039217;28;20204;-75
2022/07/21 03:13:14;;;;;;;11.32;6.72;;;;;25.70;101544.00;;;;5040415;28;20311;-75
2022/07/21 03:15:41;;;;;;;8.18;6.80;;;;;25.70;101553.00;;;;5047061;28;20215;-75
2022/07/21 03:18:09;;;;;;;9.27;7.47;;;;;25.70;101558.00;;;;5044464;28;20200;-75
2022/07/21 03:20:39;;;;;;;8.80;7.15;;;;;25.70;101563.00;;;;5041520;28;20191;-75
2022/07/21 03:23:07;;;;;;;10.07;7.25;;;;;25.70;101567.00;;;;5050695;28;20204;-75
2022/07/21 03:25:35;;;;;;;8.18;6.90;;;;;25.70;101568.00;;;;5036967;28;20680;-75
2022/07/21 03:28:03;;;;;;;8.38;7.38;;;;;25.70;101565.00;;;;5042232;28;20200;-75
2022/07/21 03:30:30;;;;;;;8.60;7.00;;;;;25.70;101565.00;;;;5036077;28;20207;-75
2022/07/21 03:32:58;;;;;;;7.60;6.85;;;;;25.70;101563.00;;;;5035358;28;20764;-75
2022/07/21 03:35:26;;;;;;;8.63;7.25;;;;;25.70;101558.00;;;;5049589;28;20947;-75
2022/07/21 03:37:57;;;;;;;7.57;6.35;;;;;25.60;101566.00;;;;5048672;28;20199;-75
2022/07/21 03:40:26;;;;;;;10.05;7.65;;;;;25.70;101571.00;;;;5042026;28;20201;-75
2022/07/21 03:42:55;;;;;;;10.63;7.60;;;;;25.70;101561.00;;;;5036560;28;20210;-75
2022/07/21 03:45:23;;;;;;;8.10;7.10;;;;;25.70;101568.00;;;;5037604;28;20220;-75
2022/07/21 03:47:51;;;;;;;11.20;7.90;;;;;25.70;101568.00;;;;5036766;28;20212;-75
2022/07/21 03:50:18;;;;;;;8.77;7.18;;;;;25.70;101567.00;;;;5036399;28;20196;-75
2022/07/21 03:52:46;;;;;;;9.15;8.25;;;;;25.70;101568.00;;;;5038745;28;20220;-75
2022/07/21 03:55:17;;;;;;;8.65;7.72;;;;;25.70;101565.00;;;;5042336;28;20204;-75
2022/07/21 03:57:49;;;;;;;10.55;7.15;;;;;25.70;101565.00;;;;5041442;28;20316;-75
2022/07/21 04:00:18;;;;;;;8.20;7.32;;;;;25.70;101567.00;;;;5032084;28;20192;-75
2022/07/21 04:02:46;;;;;;;10.63;8.15;;;;;25.70;101563.00;;;;5043103;28;20274;-75
2022/07/21 04:05:15;;;;;;;10.77;8.68;;;;;25.70;101563.00;;;;5034923;28;20196;-76
2022/07/21 04:07:45;;;;;;;9.60;7.85;;;;;25.70;101563.00;;;;5043822;28;20681;-75
2022/07/21 04:10:16;;;;;;;8.32;7.25;;;;;25.70;101564.00;;;;5032743;28;20275;-75
2022/07/21 04:12:44;;;;;;;8.65;7.55;;;;;25.70;101557.00;;;;5040809;28;20226;-75
2022/07/21 04:15:12;;;;;;;9.30;8.02;;;;;25.80;101565.00;;;;5038407;28;20207;-75
2022/07/21 04:17:40;;;;;;;8.93;7.20;;;;;25.70;101570.00;;;;5035250;28;20208;-75
2022/07/21 04:20:09;;;;;;;7.90;6.90;;;;;25.70;101571.00;;;;5041496;28;20654;-75
2022/07/21 04:22:37;;;;;;;11.48;7.97;;;;;25.80;101575.00;;;;5040860;28;20558;-75
2022/07/21 04:25:08;;;;;;;9.05;7.30;;;;;25.80;101565.00;;;;5033071;28;20192;-75
2022/07/21 04:27:37;;;;;;;9.38;7.80;;;;;25.70;101567.00;;;;5032931;28;20203;-75
2022/07/21 04:30:06;;;;;;;8.68;7.22;;;;;25.80;101571.00;;;;5031495;28;20208;-75
2022/07/21 04:32:33;;;;;;;9.10;8.10;;;;;25.80;101565.00;;;;5032010;28;20234;-75
2022/07/21 04:35:01;;;;;;;8.60;7.47;;;;;25.80;101562.00;;;;5044794;28;20210;-75
2022/07/21 04:37:28;;;;;;;9.73;8.25;;;;;25.80;101562.00;;;;5045585;28;20191;-75
2022/07/21 04:39:55;;;;;;;10.65;8.70;;;;;25.80;101564.00;;;;5035308;28;20572;-76
2022/07/21 04:42:23;;;;;;;8.80;7.95;;;;;25.80;101564.00;;;;5031847;28;20208;-76
2022/07/21 04:44:51;;;;;;;9.25;7.97;;;;;25.80;101567.00;;;;5039044;28;20211;-76
2022/07/21 04:47:19;;;;;;;9.55;8.13;;;;;25.80;101577.00;;;;5031481;28;20223;-76
2022/07/21 04:49:46;;;;;;;9.40;8.40;;;;;25.80;101575.00;;;;5032496;28;20195;-75
2022/07/21 04:52:14;;;;;;;11.13;9.27;;;;;25.80;101573.00;;;;5046267;28;20219;-75
2022/07/21 04:54:41;;;;;;;8.93;7.97;;;;;25.80;101573.00;;;;5049158;28;20211;-76
2022/07/21 04:57:08;;;;;;;10.40;8.45;;;;;25.80;101566.00;;;;5050205;28;20234;-76
2022/07/21 04:59:36;;;;;;;10.70;8.93;;;;;25.80;101568.00;;;;5040059;28;20204;-76
2022/07/21 05:02:06;;;;;;;9.85;8.80;;;;;25.80;101567.00;;;;5028926;28;20200;-75
2022/07/21 05:04:33;;;;;;;11.02;8.90;;;;;25.80;101574.00;;;;5038633;28;20686;-76
2022/07/21 05:07:00;;;;;;;9.23;7.85;;;;;25.80;101570.00;;;;5037571;28;20209;-76
2022/07/21 05:09:28;;;;;;;8.85;7.43;;;;;25.80;101565.00;;;;5038106;28;20187;-75
2022/07/21 05:11:55;;;;;;;11.38;9.48;;;;;25.80;101574.00;;;;5050026;28;20203;-75
2022/07/21 05:14:22;;;;;;;10.55;8.73;;;;;25.80;101567.00;;;;5042288;28;20226;-76
2022/07/21 05:16:49;;;;;;;10.75;9.43;;;;;25.80;101563.00;;;;5038735;28;20197;-75
2022/07/21 05:19:18;;;;;;;9.25;8.23;;;;;25.70;101571.00;;;;5028869;28;20196;-75
2022/07/21 05:21:46;;;;;;;9.13;7.72;;;;;25.80;101564.00;;;;5029569;28;20282;-75
2022/07/21 05:24:14;;;;;;;9.60;7.50;;;;;25.70;101559.00;;;;5035137;28;20200;-75
2022/07/21 05:26:41;;;;;;;8.45;7.30;;;;;25.70;101562.00;;;;5028938;28;20238;-75
2022/07/21 05:29:09;;;;;;;9.70;8.20;;;;;25.70;101560.00;;;;5034955;28;20273;-75
2022/07/21 05:31:36;;;;;;;8.98;7.53;;;;;25.70;101560.00;;;;5028238;28;20200;-75
2022/07/21 05:34:03;;;;;;;9.27;7.65;;;;;25.70;101548.00;;;;5029882;28;20228;-75
2022/07/21 05:36:32;;;;;;;9.30;7.68;;;;;25.70;101551.00;;;;5036356;28;20191;-76
2022/07/21 05:38:59;;;;;;;10.73;8.70;;;;;25.70;101555.00;;;;5040462;28;20675;-75
2022/07/21 05:41:26;;;;;;;9.60;7.65;;;;;25.70;101550.00;;;;5029587;28;20219;-76
2022/07/21 05:43:54;;;;;;;9.70;8.55;;;;;25.70;101546.00;;;;5029726;28;20446;-76
2022/07/21 05:46:21;;;;;;;8.63;7.53;;;;;25.70;101552.00;;;;5034052;28;20192;-75
2022/07/21 05:48:48;;;;;;;8.55;7.03;;;;;25.80;101549.00;;;;5040773;28;20219;-76
2022/07/21 05:51:15;;;;;;;9.80;7.20;;;;;25.80;101545.00;;;;5043803;28;20203;-76
2022/07/21 05:53:44;;;;;;;12.52;8.48;;;;;25.80;101548.00;;;;5049971;28;20712;-76
2022/07/21 05:56:11;;;;;;;9.02;7.28;;;;;25.80;101548.00;;;;5044232;28;20201;-76
2022/07/21 05:58:39;;;;;;;14.38;7.68;;;;;25.80;101548.00;;;;5036516;28;20281;-76
2022/07/21 06:01:09;;;;;;;8.50;7.20;;;;;25.80;101543.00;;;;5043710;28;20216;-76
2022/07/21 06:03:36;;;;;;;9.27;7.25;;;;;25.80;101548.00;;;;5030464;28;20196;-76
2022/07/21 06:06:07;;;;;;;8.93;7.60;;;;;25.80;101545.00;;;;5030029;28;20204;-76
2022/07/21 06:08:34;;;;;;;9.85;7.20;;;;;25.80;101548.00;;;;5029492;28;20423;-75
2022/07/21 06:11:03;;;;;;;9.23;6.72;;;;;25.80;101548.00;;;;5031268;28;20212;-76
2022/07/21 06:13:30;;;;;;;10.63;7.53;;;;;25.80;101540.00;;;;5030191;28;20220;-77
2022/07/21 06:15:58;;;;;;;9.02;7.50;;;;;25.80;101541.00;;;;5030170;28;20203;-77
2022/07/21 06:18:25;;;;;;;8.38;7.00;;;;;25.80;101543.00;;;;5028340;28;20207;-76
2022/07/21 06:20:52;;;;;;;10.13;7.50;;;;;25.90;101540.00;;;;5030272;28;20204;-77
2022/07/21 06:23:20;;;;;;;11.05;8.23;;;;;25.90;101542.00;;;;5027693;28;20200;-76
2022/07/21 06:25:47;;;;;;;11.77;7.65;;;;;25.90;101543.00;;;;5029806;28;20211;-77
2022/07/21 06:28:16;;;;;;;12.20;7.93;;;;;25.90;101531.00;;;;5035384;28;20693;-77
2022/07/21 06:30:43;;;;;;;11.20;7.57;;;;;25.90;101534.00;;;;5037478;28;20764;-76
2022/07/21 06:33:11;;;;;;;11.32;7.38;;;;;25.90;101539.00;;;;5028517;28;20216;-77
2022/07/21 06:35:38;;;;;;;9.55;7.15;;;;;25.90;101539.00;;;;5031108;28;20199;-76
2022/07/21 06:38:06;;;;;;;10.50;7.75;;;;;25.90;101534.00;;;;5027443;28;20215;-76
2022/07/21 06:40:34;;;;;;;11.40;8.25;;;;;25.90;101532.00;;;;5028188;28;20196;-77
2022/07/21 06:43:01;;;;;;;15.15;8.00;;;;;26.00;101535.00;;;;5028597;28;20204;-76
2022/07/21 06:45:30;;;;;;;12.57;8.73;;;;;26.00;101530.00;;;;5027955;28;20701;-76
2022/07/21 06:48:06;;;;;;;11.63;8.23;;;;;25.90;101537.00;;;;5028824;28;20228;-76
2022/07/21 06:50:33;;;;;;;10.32;8.02;;;;;26.10;101543.00;;;;5028293;28;20662;-76
2022/07/21 06:53:01;;;;;;;12.63;8.20;;;;;26.10;101532.00;;;;5028014;28;20223;-76
2022/07/21 06:55:28;;;;;;;12.82;8.35;;;;;26.10;101535.00;;;;5028082;28;20201;-76
2022/07/21 06:57:55;;;;;;;11.30;9.10;;;;;26.20;101528.00;;;;5027918;28;20231;-76
2022/07/21 07:00:23;;;;;;;12.38;8.75;;;;;26.30;101527.00;;;;5027863;28;20205;-76
2022/07/21 07:02:51;;;;;;;15.73;9.85;;;;;26.30;101533.00;;;;5028913;28;20196;-77
2022/07/21 07:05:19;;;;;;;13.10;9.27;;;;;26.30;101540.00;;;;5041105;28;20196;-76
2022/07/21 07:07:47;;;;;;;14.88;9.18;;;;;26.40;101538.00;;;;5031784;28;20215;-76
2022/07/21 07:10:15;;;;;;;11.10;8.70;;;;;26.40;101543.00;;;;5028205;28;20204;-76
2022/07/21 07:12:42;;;;;;;14.05;10.55;;;;;26.40;101541.00;;;;5031288;28;20207;-77
2022/07/21 07:15:11;;;;;;;16.02;10.85;;;;;26.40;101547.00;;;;5031843;28;20219;-77
2022/07/21 07:17:38;;;;;;;13.65;11.13;;;;;26.40;101552.00;;;;5031983;28;20207;-76
2022/07/21 07:20:11;;;;;;;16.92;10.95;;;;;26.40;101552.00;;;;5048529;28;20203;-77
2022/07/21 07:22:38;;;;;;;21.02;12.13;;;;;26.40;101551.00;;;;5039494;28;20200;-76
2022/07/21 07:25:10;;;;;;;19.05;12.40;;;;;26.40;101556.00;;;;5031257;28;20210;-76
2022/07/21 07:27:37;;;;;;;19.58;13.45;;;;;26.40;101554.00;;;;5045499;28;20202;-77
2022/07/21 07:30:05;;;;;;;21.35;13.75;;;;;26.50;101559.00;;;;5051090;28;20204;-76
2022/07/21 07:32:33;;;;;;;18.10;12.77;;;;;26.50;101558.00;;;;5049425;28;20199;-77
2022/07/21 07:35:00;;;;;;;19.50;14.32;;;;;26.50;101563.00;;;;5048700;28;20224;-77
2022/07/21 07:37:29;;;;;;;18.75;13.20;;;;;26.50;101567.00;;;;5045855;28;20203;-77
2022/07/21 07:39:56;;;;;;;17.75;12.57;;;;;26.40;101574.00;;;;5034158;28;20212;-76
2022/07/21 07:42:23;;;;;;;16.30;11.70;;;;;26.40;101574.00;;;;5036784;28;20204;-77
2022/07/21 07:44:50;;;;;;;17.60;12.25;;;;;26.50;101574.00;;;;5033617;28;20203;-74
2022/07/21 07:47:18;;;;;;;18.02;12.40;;;;;26.50;101576.00;;;;5042550;28;20212;-75
2022/07/21 07:49:45;;;;;;;18.33;12.70;;;;;26.50;101577.00;;;;5031271;28;20212;-74
2022/07/21 07:52:12;;;;;;;21.88;12.65;;;;;26.50;101576.00;;;;5030123;28;20195;-75
2022/07/21 07:54:41;;;;;;;17.95;13.00;;;;;26.40;101571.00;;;;5031419;28;20220;-75
2022/07/21 07:57:08;;;;;;;20.42;13.43;;;;;26.40;101579.00;;;;5037877;28;20220;-75
2022/07/21 07:59:35;;;;;;;15.23;12.77;;;;;26.40;101579.00;;;;5036033;28;20231;-75
2022/07/21 08:02:03;;;;;;;19.08;12.77;;;;;26.40;101578.00;;;;5031482;28;20196;-74
2022/07/21 08:04:30;;;;;;;17.70;12.13;;;;;26.40;101584.00;;;;5030582;28;20207;-76
2022/07/21 08:06:57;;;;;;;22.00;12.75;;;;;26.40;101584.00;;;;5030819;28;20666;-76
2022/07/21 08:09:25;;;;;;;17.40;11.68;;;;;26.30;101585.00;;;;5030960;28;20196;-75
2022/07/21 08:11:53;;;;;;;16.75;11.77;;;;;26.30;101589.00;;;;5032491;28;20215;-75
2022/07/21 08:14:21;;;;;;;18.77;12.38;;;;;26.30;101584.00;;;;5030751;28;20729;-75
2022/07/21 08:16:48;;;;;;;19.10;11.13;;;;;26.30;101587.00;;;;5030054;28;20232;-75
2022/07/21 08:19:15;;;;;;;16.90;11.13;;;;;26.30;101588.00;;;;5030211;28;20418;-76
2022/07/21 08:21:43;;;;;;;16.98;11.30;;;;;26.30;101586.00;;;;5042268;28;20187;-75
2022/07/21 08:24:10;;;;;;;13.48;10.20;;;;;26.30;101587.00;;;;5031297;28;20223;-75
2022/07/21 08:26:37;;;;;;;15.63;11.43;;;;;26.30;101581.00;;;;5030387;28;20205;-76
2022/07/21 08:29:07;;;;;;;12.73;9.80;;;;;26.20;101573.00;;;;5033144;28;20197;-75
2022/07/21 08:31:34;;;;;;;14.27;11.10;;;;;26.20;101568.00;;;;5029434;28;20208;-76
2022/07/21 08:34:01;;;;;;;12.95;10.32;;;;;26.20;101571.00;;;;5029991;28;20227;-76
2022/07/21 08:36:29;;;;;;;15.68;10.88;;;;;26.20;101571.00;;;;5036961;28;20192;-76
2022/07/21 08:38:56;;;;;;;12.88;9.43;;;;;26.20;101572.00;;;;5049679;28;20203;-76
2022/07/21 08:41:24;;;;;;;12.07;10.05;;;;;26.20;101569.00;;;;5047301;28;20211;-77
2022/07/21 08:43:51;;;;;;;14.85;10.52;;;;;26.20;101569.00;;;;5048913;28;20204;-76
2022/07/21 08:46:23;;;;;;;13.95;10.07;;;;;26.10;101572.00;;;;5043516;28;20612;-77
2022/07/21 08:48:52;;;;;;;13.55;10.02;;;;;26.10;101566.00;;;;5030020;28;20219;-76
2022/07/21 08:51:19;;;;;;;13.05;9.63;;;;;26.10;101571.00;;;;5029926;28;20239;-76
2022/07/21 08:53:47;;;;;;;12.30;9.25;;;;;26.10;101572.00;;;;5030585;28;20231;-77
2022/07/21 08:56:15;;;;;;;13.68;10.05;;;;;26.10;101572.00;;;;5040124;28;20295;-77
2022/07/21 08:58:42;;;;;;;9.85;8.68;;;;;26.10;101566.00;;;;5032018;28;20232;-76
2022/07/21 09:01:09;;;;;;;11.18;9.07;;;;;26.00;101573.00;;;;5029044;28;20188;-78
2022/07/21 09:03:38;;;;;;;10.50;8.57;;;;;26.00;101570.00;;;;5037814;28;20204;-78
2022/07/21 09:06:08;;;;;;;10.50;8.90;;;;;26.00;101571.00;;;;5047202;28;20207;-78
2022/07/21 09:08:38;;;;;;;14.07;9.95;;;;;26.00;101572.00;;;;5049114;28;20207;-79
2022/07/21 09:11:17;;;;;;;13.77;8.38;;;;;25.90;101572.00;;;;5049363;28;20672;-76
2022/07/21 09:13:47;;;;;;;9.85;7.55;;;;;26.00;101578.00;;;;5032028;28;21030;-76
2022/07/21 09:16:14;;;;;;;10.20;7.60;;;;;25.90;101584.00;;;;5034831;28;20763;-76
2022/07/21 09:18:53;;;;;;;8.82;7.07;;;;;25.80;101585.00;;;;5028179;28;20204;-77
2022/07/21 09:21:20;;;;;;;10.63;7.60;;;;;25.90;101585.00;;;;5029774;28;20204;-76
2022/07/21 09:23:48;;;;;;;7.78;6.45;;;;;25.90;101588.00;;;;5028270;28;20192;-76
2022/07/21 09:26:15;;;;;;;6.75;5.80;;;;;25.90;101586.00;;;;5028522;28;20189;-75
2022/07/21 09:28:43;;;;;;;5.82;4.78;;;;;25.80;101585.00;;;;5035904;28;20650;-76
2022/07/21 09:31:12;;;;;;;6.32;4.50;;;;;25.80;101596.00;;;;5036411;28;20212;-76
2022/07/21 09:33:42;;;;;;;8.05;4.00;;;;;25.80;101598.00;;;;5032413;28;20192;-76
2022/07/21 09:36:12;;;;;;;4.93;3.65;;;;;25.80;101607.00;;;;5038074;28;20196;-76
2022/07/21 09:38:42;;;;;;;3.63;3.33;;;;;25.80;101615.00;;;;5030630;28;20204;-76
2022/07/21 09:41:12;;;;;;;3.63;2.90;;;;;25.80;101614.00;;;;5036666;28;20227;-76
2022/07/21 09:43:44;;;;;;;3.45;3.05;;;;;25.80;101609.00;;;;5029009;28;20207;-75
2022/07/21 09:46:14;;;;;;;2.97;2.40;;;;;25.80;101613.00;;;;5027577;28;20204;-76
2022/07/21 09:48:44;;;;;;;3.10;2.13;;;;;25.80;101624.00;;;;5028057;28;20223;-76
2022/07/21 09:51:27;;;;;;;2.15;1.73;;;;;25.60;101623.00;;;;5032042;28;20200;-76
2022/07/21 09:53:58;;;;;;;2.25;1.90;;;;;25.70;101621.00;;;;5034560;28;20573;-76
2022/07/21 09:56:28;;;;;;;1.92;1.77;;;;;25.70;101615.00;;;;5027112;28;20196;-75
2022/07/21 09:58:57;;;;;;;3.70;1.92;;;;;25.70;101619.00;;;;5028572;28;20235;-76
2022/07/21 10:01:25;;;;;;;3.67;2.28;;;;;25.70;101624.00;;;;5034205;28;20955;-76
2022/07/21 10:03:53;;;;;;;2.35;1.98;;;;;25.80;101629.00;;;;5031408;28;20741;-76
2022/07/21 10:06:25;;;;;;;2.03;1.77;;;;;25.70;101630.00;;;;5029205;28;20204;-76
2022/07/21 10:08:53;;;;;;;2.17;1.77;;;;;25.70;101638.00;;;;5028715;28;20200;-77
2022/07/21 10:11:20;;;;;;;2.25;2.00;;;;;25.70;101638.00;;;;5033137;28;20231;-77
2022/07/21 10:13:48;;;;;;;2.85;1.90;;;;;25.70;101635.00;;;;5028244;28;20199;-77
2022/07/21 10:16:16;;;;;;;2.90;2.42;;;;;25.70;101642.00;;;;5027459;28;22072;-76
2022/07/21 10:19:15;;;;;;;2.63;2.08;;;;;25.60;101638.00;;;;5032830;28;20215;-77
2022/07/21 10:21:51;;;;;;;2.47;2.28;;;;;25.70;101643.00;;;;5027532;28;20588;-77
2022/07/21 10:24:19;;;;;;;2.30;2.10;;;;;25.70;101647.00;;;;5027570;28;20204;-76
2022/07/21 10:27:12;;;;;;;2.40;2.10;;;;;25.60;101643.00;;;;5027827;28;20200;-78
2022/07/21 10:29:54;;;;;;;4.45;2.25;;;;;25.60;101643.00;;;;5020409;28;20192;-78
2022/07/21 10:32:24;;;;;;;5.35;2.38;;;;;25.70;101649.00;;;;5036706;28;20225;-78
2022/07/21 10:34:52;;;;;;;3.22;2.92;;;;;25.60;101651.00;;;;5036759;28;20222;-77
2022/07/21 10:37:47;;;;;;;3.20;2.78;;;;;25.50;101656.00;;;;5029898;28;20201;-77
2022/07/21 10:40:42;;;;;;;3.00;2.50;;;;;25.50;101658.00;;;;5027949;28;20242;-78
2022/07/21 10:43:42;;;;;;;2.80;2.40;;;;;25.50;101657.00;;;;5029266;28;20192;-77
2022/07/21 10:46:35;;;;;;;3.58;2.90;;;;;25.40;101650.00;;;;5028713;28;20207;-77
2022/07/21 10:49:05;;;;;;;5.20;2.42;;;;;25.60;101651.00;;;;5030272;28;20212;-78
2022/07/21 10:51:35;;;;;;;3.45;3.05;;;;;25.60;101659.00;;;;5047040;28;20196;-77
2022/07/21 10:54:23;;;;;;;4.28;3.05;;;;;25.50;101653.00;;;;5038824;28;20277;-77
2022/07/21 10:57:29;;;;;;;3.75;2.67;;;;;25.50;101661.00;;;;5030439;28;20247;-77
2022/07/21 11:00:16;;;;;;;3.22;2.83;;;;;25.50;101658.00;;;;5034866;28;20211;-77
2022/07/21 11:02:44;;;;;;;4.82;3.42;;;;;25.60;101658.00;;;;5033839;28;20200;-77
2022/07/21 11:05:11;;;;;;;4.50;2.90;;;;;25.60;101664.00;;;;5045845;28;20290;-77
2022/07/21 11:08:13;;;;;;;3.15;2.85;;;;;25.50;101664.00;;;;5044323;28;20189;-77
2022/07/21 11:10:44;;;;;;;6.65;3.45;;;;;25.60;101662.00;;;;5031222;28;20206;-77
2022/07/21 11:13:11;;;;;;;3.97;3.00;;;;;25.60;101664.00;;;;5036092;28;20211;-77
2022/07/21 11:15:49;;;;;;;3.67;3.17;;;;;25.60;101670.00;;;;5039089;28;20228;-78
2022/07/21 11:18:21;;;;;;;4.30;3.08;;;;;25.60;101672.00;;;;5033217;28;20625;-80
2022/07/21 11:21:10;;;;;;;3.63;2.80;;;;;25.50;101671.00;;;;5033464;28;20287;-78
2022/07/21 11:23:39;;;;;;;4.03;3.25;;;;;25.60;101674.00;;;;5032700;28;20211;-78
2022/07/21 11:26:09;;;;;;;3.40;2.95;;;;;25.60;101668.00;;;;5033730;28;20212;-78
2022/07/21 11:28:37;;;;;;;4.90;3.35;;;;;25.60;101673.00;;;;5051970;28;20211;-78
2022/07/21 11:31:09;;;;;;;5.95;3.50;;;;;25.50;101675.00;;;;5033636;28;20208;-77
2022/07/21 11:33:38;;;;;;;5.53;3.15;;;;;25.60;101678.00;;;;5031750;28;20199;-79
2022/07/21 11:36:06;;;;;;;4.40;3.28;;;;;25.60;101681.00;;;;5048301;28;20211;-78
2022/07/21 11:38:34;;;;;;;5.28;3.20;;;;;25.60;101681.00;;;;5047228;28;20204;-78
2022/07/21 11:41:19;;;;;;;3.85;3.17;;;;;25.40;101679.00;;;;5053830;28;20188;-78
2022/07/21 11:43:47;;;;;;;3.58;3.28;;;;;25.50;101679.00;;;;5034040;28;20208;-78
2022/07/21 11:46:15;;;;;;;4.30;3.47;;;;;25.50;101679.00;;;;5030580;28;20208;-79
2022/07/21 11:48:42;;;;;;;3.72;3.28;;;;;25.50;101676.00;;;;5030396;28;20209;-78
2022/07/21 11:51:10;;;;;;;4.50;3.30;;;;;25.50;101682.00;;;;5030679;28;20211;-79
2022/07/21 11:53:43;;;;;;;3.67;3.38;;;;;25.50;101680.00;;;;5038836;28;20686;-77
2022/07/21 11:56:15;;;;;;;2.80;2.60;;;;;25.40;101670.00;;;;5049057;28;20599;-77
2022/07/21 11:58:45;;;;;;;3.95;2.42;;;;;25.40;101671.00;;;;5028872;28;20599;-78
2022/07/21 12:01:13;;;;;;;2.60;2.40;;;;;25.40;101668.00;;;;5030311;28;20671;-78
2022/07/21 12:03:50;;;;;;;3.20;2.50;;;;;25.30;101679.00;;;;5032212;28;20196;-78
2022/07/21 12:06:18;;;;;;;2.35;2.05;;;;;25.40;101668.00;;;;5050019;28;20199;-78
2022/07/21 12:08:46;;;;;;;3.30;2.13;;;;;25.40;101669.00;;;;5031140;28;20204;-77
2022/07/21 12:11:14;;;;;;;2.50;1.65;;;;;25.50;101668.00;;;;5034494;28;20207;-77
2022/07/21 12:13:56;;;;;;;2.25;1.98;;;;;25.30;101674.00;;;;5030712;28;20200;-77
2022/07/21 12:16:23;;;;;;;3.67;1.60;;;;;25.40;101666.00;;;;5029185;28;20600;-78